sensor_id;sensor_type;location;lat;lon;timestamp;temperature;humidity
68199;HTU21D;55021;51.554;17.044;2022-09-03T07:33:51;20.28;46.93
68199;HTU21D;55021;51.554;17.044;2022-09-03T07:48:56;20.91;47.47
68199;HTU21D;55021;51.554;17.044;2022-09-03T08:04:00;21.04;44.82
68199;HTU21D;55021;51.554;17.044;2022-09-03T08:19:04;20.87;46.30
68199;HTU21D;55021;51.554;17.044;2022-09-03T08:34:06;20.89;45.10
68199;HTU21D;55021;51.554;17.044;2022-09-03T08:49:12;20.86;44.07
68199;HTU21D;55021;51.554;17.044;2022-09-03T09:04:26;22.16;42.53
68199;HTU21D;55021;51.554;17.044;2022-09-03T09:19:39;22.50;41.08
68199;HTU21D;55021;51.554;17.044;2022-09-03T09:34:43;21.60;44.70
68199;HTU21D;55021;51.554;17.044;2022-09-03T09:49:53;21.67;44.29
68199;HTU21D;55021;51.554;17.044;2022-09-03T10:05:00;21.59;43.22
68199;HTU21D;55021;51.554;17.044;2022-09-03T10:20:14;22.31;42.49
68199;HTU21D;55021;51.554;17.044;2022-09-03T10:35:25;22.79;40.31
68199;HTU21D;55021;51.554;17.044;2022-09-03T10:50:43;23.34;39.11
68199;HTU21D;55021;51.554;17.044;2022-09-03T11:05:55;23.64;37.23
68199;HTU21D;55021;51.554;17.044;2022-09-03T11:21:00;23.88;36.24
68199;HTU21D;55021;51.554;17.044;2022-09-03T11:36:05;24.20;34.59
68199;HTU21D;55021;51.554;17.044;2022-09-03T11:51:20;24.01;34.41
68199;HTU21D;55021;51.554;17.044;2022-09-03T12:06:42;24.09;33.71
68199;HTU21D;55021;51.554;17.044;2022-09-03T12:21:48;23.90;34.14
68199;HTU21D;55021;51.554;17.044;2022-09-03T12:36:54;24.02;34.92
68199;HTU21D;55021;51.554;17.044;2022-09-03T12:52:01;24.23;34.78
68199;HTU21D;55021;51.554;17.044;2022-09-03T13:07:07;24.57;33.09
68199;HTU21D;55021;51.554;17.044;2022-09-03T13:22:19;24.39;33.86
68199;HTU21D;55021;51.554;17.044;2022-09-03T13:37:30;24.27;34.21
68199;HTU21D;55021;51.554;17.044;2022-09-03T13:52:39;24.27;35.35
68199;HTU21D;55021;51.554;17.044;2022-09-03T14:07:50;23.79;34.14
68199;HTU21D;55021;51.554;17.044;2022-09-03T14:23:00;23.30;36.09
68199;HTU21D;55021;51.554;17.044;2022-09-03T14:38:30;22.82;38.54
68199;HTU21D;55021;51.554;17.044;2022-09-03T14:53:54;23.08;37.66
68199;HTU21D;55021;51.554;17.044;2022-09-03T15:09:16;23.13;36.96
68199;HTU21D;55021;51.554;17.044;2022-09-03T15:24:34;23.08;36.46
68199;HTU21D;55021;51.554;17.044;2022-09-03T15:39:42;23.58;37.95
68199;HTU21D;55021;51.554;17.044;2022-09-03T15:54:52;23.15;39.07
68199;HTU21D;55021;51.554;17.044;2022-09-03T16:10:07;23.44;40.23
68199;HTU21D;55021;51.554;17.044;2022-09-03T16:25:15;22.77;41.45
68199;HTU21D;55021;51.554;17.044;2022-09-03T16:40:23;22.77;42.74
68199;HTU21D;55021;51.554;17.044;2022-09-03T16:55:35;22.75;42.96
68199;HTU21D;55021;51.554;17.044;2022-09-03T17:10:45;22.73;43.17
68199;HTU21D;55021;51.554;17.044;2022-09-03T17:25:54;22.63;43.66
68199;HTU21D;55021;51.554;17.044;2022-09-03T17:41:10;21.82;47.02
68199;HTU21D;55021;51.554;17.044;2022-09-03T17:56:23;21.31;48.69
68199;HTU21D;55021;51.554;17.044;2022-09-03T18:11:33;21.04;49.53
68199;HTU21D;55021;51.554;17.044;2022-09-03T18:26:44;20.49;52.21
68199;HTU21D;55021;51.554;17.044;2022-09-03T18:41:59;20.26;52.71
68199;HTU21D;55021;51.554;17.044;2022-09-03T18:57:10;19.79;54.81
68199;HTU21D;55021;51.554;17.044;2022-09-03T19:12:26;19.13;57.20
68199;HTU21D;55021;51.554;17.044;2022-09-03T19:27:39;18.57;59.27
68199;HTU21D;55021;51.554;17.044;2022-09-03T19:42:52;17.97;60.64
68199;HTU21D;55021;51.554;17.044;2022-09-03T19:58:00;17.65;62.34
68199;HTU21D;55021;51.554;17.044;2022-09-03T20:13:06;17.39;63.30
68199;HTU21D;55021;51.554;17.044;2022-09-03T20:28:21;17.05;65.07
68199;HTU21D;55021;51.554;17.044;2022-09-03T20:43:39;16.78;64.38
68199;HTU21D;55021;51.554;17.044;2022-09-03T20:58:59;16.37;69.93
68199;HTU21D;55021;51.554;17.044;2022-09-03T21:14:17;16.60;68.45
68199;HTU21D;55021;51.554;17.044;2022-09-03T21:29:25;16.69;69.36
68199;HTU21D;55021;51.554;17.044;2022-09-03T21:44:44;16.74;69.26
68199;HTU21D;55021;51.554;17.044;2022-09-03T22:00:01;16.94;69.42
68199;HTU21D;55021;51.554;17.044;2022-09-03T22:15:11;17.18;69.22
68199;HTU21D;55021;51.554;17.044;2022-09-03T22:30:16;17.17;67.72
68199;HTU21D;55021;51.554;17.044;2022-09-03T22:45:39;17.24;67.45
68199;HTU21D;55021;51.554;17.044;2022-09-03T23:00:54;16.60;70.23
68199;HTU21D;55021;51.554;17.044;2022-09-03T23:16:06;16.13;71.35
68199;HTU21D;55021;51.554;17.044;2022-09-03T23:31:17;16.04;71.58
68199;HTU21D;55021;51.554;17.044;2022-09-03T23:46:24;15.65;73.35
